Terminal Aerodrome Forecast
Issued by NWS Blacksburg, VA

Current Version | Previous Version | Text Only | Print | Product List | Glossary Off
Versions: 1 2 3 4 5 6 7 8 9 10 11 12 13 14 15 16 17 18 19 20 21 22 23 24 25 26 27 28 29 30 31 32 33 34 35 36 37 38 39 40

320
FTUS41 KRNK 191130
TAFBLF
TAF
KBLF 191130Z 1912/2012 28008KT 6SM BR OVC004
      TEMPO 1912/1914 3SM BR BKN002
     FM191500 29009G17KT P6SM BKN020
     FM191800 29010G18KT P6SM BKN030
     FM192000 30009KT P6SM SCT030
     FM192300 29005KT P6SM FEW040
     FM200400 28004KT P6SM SCT008 BKN015=

USA.gov is the U.S. government's official web portal to all federal, state and local government web resources and services.